首页
METAR-TAF:

METAR-TAF

机场 :

巴耶利峇空軍基地

新加坡, 新加坡

纬度: 01-22N, 经度: 103-55E, 海拔: 18米

当前天气观测

该预报发布于18分钟前的08:25 UTC
风速6节,风向东北
温度 31°C
湿度 71%
气压 1009 hPa
能見度: 6000
少量云层高于1000英尺
少量云层高于1600英尺, 积雨云.
散云层高于1800英尺, 塔状积云.
雷暴, 小雨

METAR: WSAP 170825Z 05006KT 6000 -TSRA FEW010 FEW016CB SCT018TCU 31/25 Q1009

时间: 16:43 (08:43 UTC)

预报

该预报发布于43分钟前的08:00 UTC
预报有效从17日的 08点(UTC)到 18日的 12点(UTC)
风速8节,风向北转东北
能见度10公里或以上
散云层高于2000英尺
短暂存在
从 17日的 08点(UTC)到 17日的 11点(UTC)
能見度: 2000
少量云层高于1200英尺, 积雨云.
多云层高于1500英尺
雷暴, 雨
几率 30% :
短暂存在
从 18日的 05点(UTC)到 18日的 06点(UTC)
能見度: 3000
少量云层高于1200英尺, 积雨云.
多云层高于1500英尺
雷暴, 雨

TAF: WSAP 170800Z 1708/1812 02008KT 9999 SCT020 TEMPO 1708/1711 2000 TSRA FEW012CB BKN015 PROB30 TEMPO 1805/1806 3000 TSRA FEW012CB BKN015

超过4000个机场的气象观测和天气预报(METAR&TAF报告)。

可查询的气象台以黄色和红色小点在地图上表示。

将鼠标移到小点上方,可查看气象台名称。

然后点击查看天气观测和预报。

如需切换地图:点击带黑十字的绿色按钮放大地图;点击带横线的绿色按钮缩小地图;或者点击绿色箭头查看邻近地区的地图。


METAR-TAF: